sensor_id;sensor_type;location;lat;lon;timestamp;P1;durP1;ratioP1;P2;durP2;ratioP2
10116;SDS011;5098;48.792;9.012;2024-03-08T00:01:12;29.63;;;22.90;;
10116;SDS011;5098;48.792;9.012;2024-03-08T00:03:39;25.00;;;18.70;;
10116;SDS011;5098;48.792;9.012;2024-03-08T00:06:05;28.73;;;20.58;;
10116;SDS011;5098;48.792;9.012;2024-03-08T00:08:31;27.83;;;21.08;;
10116;SDS011;5098;48.792;9.012;2024-03-08T00:10:57;25.85;;;21.83;;
10116;SDS011;5098;48.792;9.012;2024-03-08T00:13:23;27.80;;;21.23;;
10116;SDS011;5098;48.792;9.012;2024-03-08T00:15:50;26.40;;;20.02;;
10116;SDS011;5098;48.792;9.012;2024-03-08T00:18:16;25.98;;;21.60;;
10116;SDS011;5098;48.792;9.012;2024-03-08T00:20:42;28.23;;;21.45;;
10116;SDS011;5098;48.792;9.012;2024-03-08T00:23:10;29.98;;;23.40;;
10116;SDS011;5098;48.792;9.012;2024-03-08T00:25:36;30.58;;;20.60;;
10116;SDS011;5098;48.792;9.012;2024-03-08T00:28:02;32.88;;;20.30;;
10116;SDS011;5098;48.792;9.012;2024-03-08T00:30:29;25.38;;;19.05;;
10116;SDS011;5098;48.792;9.012;2024-03-08T00:32:56;25.33;;;19.63;;
10116;SDS011;5098;48.792;9.012;2024-03-08T00:35:22;27.65;;;20.33;;
10116;SDS011;5098;48.792;9.012;2024-03-08T00:37:48;25.83;;;21.65;;
10116;SDS011;5098;48.792;9.012;2024-03-08T00:40:15;32.20;;;21.13;;
10116;SDS011;5098;48.792;9.012;2024-03-08T00:42:41;25.27;;;18.65;;
10116;SDS011;5098;48.792;9.012;2024-03-08T00:45:08;25.17;;;18.85;;
10116;SDS011;5098;48.792;9.012;2024-03-08T00:47:35;25.65;;;20.25;;
10116;SDS011;5098;48.792;9.012;2024-03-08T00:50:01;25.75;;;19.83;;
10116;SDS011;5098;48.792;9.012;2024-03-08T00:52:29;27.38;;;22.08;;
10116;SDS011;5098;48.792;9.012;2024-03-08T00:54:55;27.30;;;19.83;;
10116;SDS011;5098;48.792;9.012;2024-03-08T00:57:21;28.90;;;21.75;;
10116;SDS011;5098;48.792;9.012;2024-03-08T00:59:47;30.67;;;21.63;;
10116;SDS011;5098;48.792;9.012;2024-03-08T01:02:13;28.40;;;22.08;;
10116;SDS011;5098;48.792;9.012;2024-03-08T01:04:39;26.00;;;18.70;;
10116;SDS011;5098;48.792;9.012;2024-03-08T01:07:05;53.75;;;35.53;;
10116;SDS011;5098;48.792;9.012;2024-03-08T01:09:31;28.20;;;21.05;;
10116;SDS011;5098;48.792;9.012;2024-03-08T01:11:57;30.95;;;24.00;;
10116;SDS011;5098;48.792;9.012;2024-03-08T01:14:24;38.35;;;25.85;;
10116;SDS011;5098;48.792;9.012;2024-03-08T01:16:56;25.60;;;19.45;;
10116;SDS011;5098;48.792;9.012;2024-03-08T01:19:22;28.42;;;20.40;;
10116;SDS011;5098;48.792;9.012;2024-03-08T01:21:48;26.65;;;21.13;;
10116;SDS011;5098;48.792;9.012;2024-03-08T01:24:14;25.38;;;18.45;;
10116;SDS011;5098;48.792;9.012;2024-03-08T01:26:41;27.25;;;21.85;;
10116;SDS011;5098;48.792;9.012;2024-03-08T01:29:07;23.85;;;17.00;;
10116;SDS011;5098;48.792;9.012;2024-03-08T01:31:33;29.33;;;19.30;;
10116;SDS011;5098;48.792;9.012;2024-03-08T01:33:59;26.40;;;20.27;;
10116;SDS011;5098;48.792;9.012;2024-03-08T01:36:25;28.55;;;20.80;;
10116;SDS011;5098;48.792;9.012;2024-03-08T01:38:52;28.35;;;20.75;;
10116;SDS011;5098;48.792;9.012;2024-03-08T01:41:18;25.88;;;18.35;;
10116;SDS011;5098;48.792;9.012;2024-03-08T01:43:44;25.75;;;19.17;;
10116;SDS011;5098;48.792;9.012;2024-03-08T01:46:11;28.35;;;20.45;;
10116;SDS011;5098;48.792;9.012;2024-03-08T01:48:38;27.20;;;21.42;;
10116;SDS011;5098;48.792;9.012;2024-03-08T01:51:06;31.92;;;21.88;;
10116;SDS011;5098;48.792;9.012;2024-03-08T01:53:32;27.15;;;20.15;;
10116;SDS011;5098;48.792;9.012;2024-03-08T01:55:58;26.45;;;19.67;;
10116;SDS011;5098;48.792;9.012;2024-03-08T01:58:26;28.50;;;20.73;;
10116;SDS011;5098;48.792;9.012;2024-03-08T02:00:53;28.98;;;21.08;;
10116;SDS011;5098;48.792;9.012;2024-03-08T02:03:19;27.95;;;20.50;;
10116;SDS011;5098;48.792;9.012;2024-03-08T02:05:47;26.48;;;20.00;;
10116;SDS011;5098;48.792;9.012;2024-03-08T02:08:13;25.88;;;18.42;;
10116;SDS011;5098;48.792;9.012;2024-03-08T02:10:45;26.85;;;19.65;;
10116;SDS011;5098;48.792;9.012;2024-03-08T02:13:12;26.40;;;18.98;;
10116;SDS011;5098;48.792;9.012;2024-03-08T02:15:54;27.50;;;20.63;;
10116;SDS011;5098;48.792;9.012;2024-03-08T02:18:21;25.95;;;20.65;;
10116;SDS011;5098;48.792;9.012;2024-03-08T02:20:47;24.92;;;18.00;;
10116;SDS011;5098;48.792;9.012;2024-03-08T02:23:14;27.50;;;20.50;;
10116;SDS011;5098;48.792;9.012;2024-03-08T02:25:40;24.23;;;18.33;;
10116;SDS011;5098;48.792;9.012;2024-03-08T02:28:10;25.80;;;19.38;;
10116;SDS011;5098;48.792;9.012;2024-03-08T02:30:36;24.10;;;20.30;;
10116;SDS011;5098;48.792;9.012;2024-03-08T02:33:03;26.27;;;19.10;;
10116;SDS011;5098;48.792;9.012;2024-03-08T02:35:29;24.40;;;18.45;;
10116;SDS011;5098;48.792;9.012;2024-03-08T02:37:55;24.65;;;18.02;;
10116;SDS011;5098;48.792;9.012;2024-03-08T02:40:21;26.20;;;20.15;;
10116;SDS011;5098;48.792;9.012;2024-03-08T02:42:47;23.38;;;19.50;;
10116;SDS011;5098;48.792;9.012;2024-03-08T02:45:13;23.33;;;16.95;;
10116;SDS011;5098;48.792;9.012;2024-03-08T02:47:39;24.52;;;17.80;;
10116;SDS011;5098;48.792;9.012;2024-03-08T02:50:06;23.58;;;18.80;;
10116;SDS011;5098;48.792;9.012;2024-03-08T02:52:36;21.85;;;16.50;;
10116;SDS011;5098;48.792;9.012;2024-03-08T02:55:03;24.90;;;18.00;;
10116;SDS011;5098;48.792;9.012;2024-03-08T02:57:31;20.73;;;15.63;;
10116;SDS011;5098;48.792;9.012;2024-03-08T02:59:57;24.27;;;18.10;;
10116;SDS011;5098;48.792;9.012;2024-03-08T03:02:24;23.95;;;18.02;;
10116;SDS011;5098;48.792;9.012;2024-03-08T03:04:51;21.48;;;17.00;;
10116;SDS011;5098;48.792;9.012;2024-03-08T03:07:17;23.75;;;18.05;;
10116;SDS011;5098;48.792;9.012;2024-03-08T03:09:44;23.40;;;17.88;;
10116;SDS011;5098;48.792;9.012;2024-03-08T03:12:10;24.17;;;18.23;;
10116;SDS011;5098;48.792;9.012;2024-03-08T03:14:36;25.05;;;18.48;;
10116;SDS011;5098;48.792;9.012;2024-03-08T03:17:05;24.40;;;18.02;;
10116;SDS011;5098;48.792;9.012;2024-03-08T03:19:31;26.60;;;18.52;;
10116;SDS011;5098;48.792;9.012;2024-03-08T03:21:57;23.48;;;18.55;;
10116;SDS011;5098;48.792;9.012;2024-03-08T03:24:24;23.42;;;19.05;;
10116;SDS011;5098;48.792;9.012;2024-03-08T03:26:50;21.38;;;17.23;;
10116;SDS011;5098;48.792;9.012;2024-03-08T03:29:16;25.75;;;18.65;;
10116;SDS011;5098;48.792;9.012;2024-03-08T03:31:43;27.45;;;17.65;;
10116;SDS011;5098;48.792;9.012;2024-03-08T03:34:12;27.05;;;18.50;;
10116;SDS011;5098;48.792;9.012;2024-03-08T03:36:39;24.48;;;19.25;;
10116;SDS011;5098;48.792;9.012;2024-03-08T03:39:08;26.48;;;18.08;;
10116;SDS011;5098;48.792;9.012;2024-03-08T03:41:41;24.48;;;17.17;;
10116;SDS011;5098;48.792;9.012;2024-03-08T03:44:07;23.80;;;19.05;;
10116;SDS011;5098;48.792;9.012;2024-03-08T03:46:33;25.75;;;19.80;;
10116;SDS011;5098;48.792;9.012;2024-03-08T03:49:00;23.50;;;19.00;;
10116;SDS011;5098;48.792;9.012;2024-03-08T03:51:28;26.00;;;21.40;;
10116;SDS011;5098;48.792;9.012;2024-03-08T03:53:55;25.25;;;18.67;;
10116;SDS011;5098;48.792;9.012;2024-03-08T03:56:25;25.90;;;19.30;;
10116;SDS011;5098;48.792;9.012;2024-03-08T03:58:52;23.58;;;17.88;;
10116;SDS011;5098;48.792;9.012;2024-03-08T04:01:18;25.05;;;19.83;;
10116;SDS011;5098;48.792;9.012;2024-03-08T04:03:44;25.85;;;19.88;;
10116;SDS011;5098;48.792;9.012;2024-03-08T04:06:10;25.67;;;20.80;;
10116;SDS011;5098;48.792;9.012;2024-03-08T04:08:36;25.00;;;19.38;;
10116;SDS011;5098;48.792;9.012;2024-03-08T04:11:02;25.92;;;19.42;;
10116;SDS011;5098;48.792;9.012;2024-03-08T04:13:28;25.13;;;19.00;;
10116;SDS011;5098;48.792;9.012;2024-03-08T04:15:54;27.15;;;20.60;;
10116;SDS011;5098;48.792;9.012;2024-03-08T04:18:20;28.60;;;20.20;;
10116;SDS011;5098;48.792;9.012;2024-03-08T04:20:46;26.40;;;21.42;;
10116;SDS011;5098;48.792;9.012;2024-03-08T04:23:13;26.60;;;20.02;;
10116;SDS011;5098;48.792;9.012;2024-03-08T04:25:39;29.15;;;20.35;;
10116;SDS011;5098;48.792;9.012;2024-03-08T04:28:07;26.13;;;21.23;;
10116;SDS011;5098;48.792;9.012;2024-03-08T04:30:36;29.88;;;22.20;;
10116;SDS011;5098;48.792;9.012;2024-03-08T04:33:02;26.48;;;20.65;;
10116;SDS011;5098;48.792;9.012;2024-03-08T04:35:28;26.45;;;20.98;;
10116;SDS011;5098;48.792;9.012;2024-03-08T04:37:55;27.50;;;20.98;;
10116;SDS011;5098;48.792;9.012;2024-03-08T04:40:22;28.77;;;20.52;;
10116;SDS011;5098;48.792;9.012;2024-03-08T04:42:48;28.45;;;21.45;;
10116;SDS011;5098;48.792;9.012;2024-03-08T04:45:15;29.33;;;21.20;;
10116;SDS011;5098;48.792;9.012;2024-03-08T04:47:42;27.10;;;20.98;;
10116;SDS011;5098;48.792;9.012;2024-03-08T04:50:08;26.20;;;20.88;;
10116;SDS011;5098;48.792;9.012;2024-03-08T04:52:34;26.92;;;20.60;;
10116;SDS011;5098;48.792;9.012;2024-03-08T04:55:00;31.17;;;21.42;;
10116;SDS011;5098;48.792;9.012;2024-03-08T04:57:29;26.77;;;21.08;;
10116;SDS011;5098;48.792;9.012;2024-03-08T04:59:55;26.75;;;20.45;;
10116;SDS011;5098;48.792;9.012;2024-03-08T05:02:23;30.13;;;22.45;;
10116;SDS011;5098;48.792;9.012;2024-03-08T05:04:49;29.02;;;22.27;;
10116;SDS011;5098;48.792;9.012;2024-03-08T05:07:15;30.50;;;23.70;;
10116;SDS011;5098;48.792;9.012;2024-03-08T05:09:41;30.20;;;21.55;;
10116;SDS011;5098;48.792;9.012;2024-03-08T05:12:08;29.05;;;21.50;;
10116;SDS011;5098;48.792;9.012;2024-03-08T05:14:34;28.52;;;21.80;;
10116;SDS011;5098;48.792;9.012;2024-03-08T05:17:00;30.88;;;23.10;;
10116;SDS011;5098;48.792;9.012;2024-03-08T05:19:26;27.30;;;20.63;;
10116;SDS011;5098;48.792;9.012;2024-03-08T05:21:55;29.00;;;20.45;;
10116;SDS011;5098;48.792;9.012;2024-03-08T05:24:21;27.17;;;20.00;;
10116;SDS011;5098;48.792;9.012;2024-03-08T05:26:47;29.95;;;20.27;;
10116;SDS011;5098;48.792;9.012;2024-03-08T05:29:13;27.55;;;20.83;;
10116;SDS011;5098;48.792;9.012;2024-03-08T05:31:48;26.20;;;20.55;;
10116;SDS011;5098;48.792;9.012;2024-03-08T05:34:15;29.95;;;21.05;;
10116;SDS011;5098;48.792;9.012;2024-03-08T05:36:42;28.40;;;19.35;;
10116;SDS011;5098;48.792;9.012;2024-03-08T05:39:14;29.83;;;20.85;;
10116;SDS011;5098;48.792;9.012;2024-03-08T05:41:41;28.40;;;20.27;;
10116;SDS011;5098;48.792;9.012;2024-03-08T05:44:07;27.88;;;21.13;;
10116;SDS011;5098;48.792;9.012;2024-03-08T05:46:33;29.13;;;21.10;;
10116;SDS011;5098;48.792;9.012;2024-03-08T05:49:00;30.95;;;19.02;;
10116;SDS011;5098;48.792;9.012;2024-03-08T05:51:35;25.60;;;20.05;;
10116;SDS011;5098;48.792;9.012;2024-03-08T05:54:05;29.40;;;21.00;;
10116;SDS011;5098;48.792;9.012;2024-03-08T05:56:33;31.95;;;23.10;;
10116;SDS011;5098;48.792;9.012;2024-03-08T05:58:59;36.05;;;24.50;;
10116;SDS011;5098;48.792;9.012;2024-03-08T06:01:26;29.20;;;21.85;;
10116;SDS011;5098;48.792;9.012;2024-03-08T06:03:55;28.52;;;22.05;;
10116;SDS011;5098;48.792;9.012;2024-03-08T06:06:25;25.98;;;19.95;;
10116;SDS011;5098;48.792;9.012;2024-03-08T06:08:51;26.80;;;20.35;;
10116;SDS011;5098;48.792;9.012;2024-03-08T06:11:17;36.78;;;24.42;;
10116;SDS011;5098;48.792;9.012;2024-03-08T06:13:44;27.80;;;21.80;;
10116;SDS011;5098;48.792;9.012;2024-03-08T06:16:10;28.40;;;21.80;;
10116;SDS011;5098;48.792;9.012;2024-03-08T06:18:37;34.65;;;22.67;;
10116;SDS011;5098;48.792;9.012;2024-03-08T06:21:04;29.10;;;22.77;;
10116;SDS011;5098;48.792;9.012;2024-03-08T06:23:33;27.30;;;21.20;;
10116;SDS011;5098;48.792;9.012;2024-03-08T06:26:03;27.98;;;22.00;;
10116;SDS011;5098;48.792;9.012;2024-03-08T06:28:29;28.85;;;23.08;;
10116;SDS011;5098;48.792;9.012;2024-03-08T06:30:57;25.00;;;20.08;;
10116;SDS011;5098;48.792;9.012;2024-03-08T06:33:23;26.25;;;19.42;;
10116;SDS011;5098;48.792;9.012;2024-03-08T06:35:51;21.88;;;18.27;;
10116;SDS011;5098;48.792;9.012;2024-03-08T06:38:17;23.98;;;18.30;;
10116;SDS011;5098;48.792;9.012;2024-03-08T06:40:44;24.15;;;19.13;;
10116;SDS011;5098;48.792;9.012;2024-03-08T06:43:13;23.83;;;17.17;;
10116;SDS011;5098;48.792;9.012;2024-03-08T06:45:41;23.52;;;17.55;;
10116;SDS011;5098;48.792;9.012;2024-03-08T06:48:07;22.73;;;17.35;;
10116;SDS011;5098;48.792;9.012;2024-03-08T06:50:34;20.40;;;15.70;;
10116;SDS011;5098;48.792;9.012;2024-03-08T06:53:01;22.35;;;17.23;;
10116;SDS011;5098;48.792;9.012;2024-03-08T06:55:28;21.40;;;16.13;;
10116;SDS011;5098;48.792;9.012;2024-03-08T06:57:54;20.20;;;16.60;;
10116;SDS011;5098;48.792;9.012;2024-03-08T07:00:20;21.33;;;16.25;;
10116;SDS011;5098;48.792;9.012;2024-03-08T07:02:51;23.13;;;17.67;;
10116;SDS011;5098;48.792;9.012;2024-03-08T07:05:18;23.40;;;17.60;;
10116;SDS011;5098;48.792;9.012;2024-03-08T07:07:45;21.27;;;16.67;;
10116;SDS011;5098;48.792;9.012;2024-03-08T07:10:14;21.75;;;16.05;;
10116;SDS011;5098;48.792;9.012;2024-03-08T07:12:40;22.95;;;17.40;;
10116;SDS011;5098;48.792;9.012;2024-03-08T07:15:07;23.55;;;18.42;;
10116;SDS011;5098;48.792;9.012;2024-03-08T07:17:38;24.98;;;19.08;;
10116;SDS011;5098;48.792;9.012;2024-03-08T07:20:05;24.85;;;18.67;;
10116;SDS011;5098;48.792;9.012;2024-03-08T07:22:36;23.55;;;18.15;;
10116;SDS011;5098;48.792;9.012;2024-03-08T07:25:04;25.73;;;18.35;;
10116;SDS011;5098;48.792;9.012;2024-03-08T07:27:33;26.48;;;20.20;;
10116;SDS011;5098;48.792;9.012;2024-03-08T07:30:01;27.15;;;18.55;;
10116;SDS011;5098;48.792;9.012;2024-03-08T07:32:27;22.70;;;19.13;;
10116;SDS011;5098;48.792;9.012;2024-03-08T07:34:55;25.10;;;21.10;;
10116;SDS011;5098;48.792;9.012;2024-03-08T07:37:21;25.35;;;19.40;;
10116;SDS011;5098;48.792;9.012;2024-03-08T07:39:48;27.15;;;19.92;;
10116;SDS011;5098;48.792;9.012;2024-03-08T07:42:15;28.17;;;20.10;;
10116;SDS011;5098;48.792;9.012;2024-03-08T07:44:41;26.83;;;19.98;;
10116;SDS011;5098;48.792;9.012;2024-03-08T07:47:08;28.77;;;20.55;;
10116;SDS011;5098;48.792;9.012;2024-03-08T07:49:35;20.95;;;18.20;;
10116;SDS011;5098;48.792;9.012;2024-03-08T07:52:02;25.75;;;18.90;;
10116;SDS011;5098;48.792;9.012;2024-03-08T07:54:29;23.35;;;18.63;;
10116;SDS011;5098;48.792;9.012;2024-03-08T07:56:55;24.90;;;19.30;;
10116;SDS011;5098;48.792;9.012;2024-03-08T07:59:21;22.63;;;18.40;;
10116;SDS011;5098;48.792;9.012;2024-03-08T08:01:47;24.33;;;18.80;;
10116;SDS011;5098;48.792;9.012;2024-03-08T08:04:13;22.23;;;18.83;;
10116;SDS011;5098;48.792;9.012;2024-03-08T08:06:42;25.40;;;19.65;;
10116;SDS011;5098;48.792;9.012;2024-03-08T08:09:09;25.52;;;19.60;;
10116;SDS011;5098;48.792;9.012;2024-03-08T08:11:39;23.83;;;19.20;;
10116;SDS011;5098;48.792;9.012;2024-03-08T08:14:06;23.85;;;18.63;;
10116;SDS011;5098;48.792;9.012;2024-03-08T08:16:34;23.13;;;18.20;;
10116;SDS011;5098;48.792;9.012;2024-03-08T08:19:06;25.40;;;18.08;;
10116;SDS011;5098;48.792;9.012;2024-03-08T08:21:36;24.75;;;19.02;;
10116;SDS011;5098;48.792;9.012;2024-03-08T08:24:04;22.67;;;17.35;;
10116;SDS011;5098;48.792;9.012;2024-03-08T08:26:31;22.23;;;18.65;;
10116;SDS011;5098;48.792;9.012;2024-03-08T08:29:01;22.40;;;17.80;;
10116;SDS011;5098;48.792;9.012;2024-03-08T08:31:27;21.33;;;17.77;;
10116;SDS011;5098;48.792;9.012;2024-03-08T08:33:53;25.90;;;18.92;;
10116;SDS011;5098;48.792;9.012;2024-03-08T08:36:23;22.90;;;19.33;;
10116;SDS011;5098;48.792;9.012;2024-03-08T08:38:49;22.77;;;18.50;;
10116;SDS011;5098;48.792;9.012;2024-03-08T08:41:15;22.20;;;17.83;;
10116;SDS011;5098;48.792;9.012;2024-03-08T08:43:42;23.30;;;16.75;;
10116;SDS011;5098;48.792;9.012;2024-03-08T08:46:09;21.75;;;17.40;;
10116;SDS011;5098;48.792;9.012;2024-03-08T08:48:38;22.98;;;15.93;;
10116;SDS011;5098;48.792;9.012;2024-03-08T08:51:06;21.42;;;17.88;;
10116;SDS011;5098;48.792;9.012;2024-03-08T08:53:37;21.38;;;18.08;;
10116;SDS011;5098;48.792;9.012;2024-03-08T08:56:03;27.52;;;20.77;;
10116;SDS011;5098;48.792;9.012;2024-03-08T08:58:29;21.75;;;19.33;;
10116;SDS011;5098;48.792;9.012;2024-03-08T09:00:55;22.73;;;17.65;;
10116;SDS011;5098;48.792;9.012;2024-03-08T09:03:21;20.52;;;16.83;;
10116;SDS011;5098;48.792;9.012;2024-03-08T09:05:48;24.25;;;18.73;;
10116;SDS011;5098;48.792;9.012;2024-03-08T09:08:14;23.85;;;16.77;;
10116;SDS011;5098;48.792;9.012;2024-03-08T09:10:40;19.08;;;11.25;;
10116;SDS011;5098;48.792;9.012;2024-03-08T09:13:06;20.75;;;14.35;;
10116;SDS011;5098;48.792;9.012;2024-03-08T09:15:35;21.38;;;17.15;;
10116;SDS011;5098;48.792;9.012;2024-03-08T09:18:01;19.27;;;14.98;;
10116;SDS011;5098;48.792;9.012;2024-03-08T09:20:27;21.05;;;17.20;;
10116;SDS011;5098;48.792;9.012;2024-03-08T09:22:54;23.77;;;18.50;;
10116;SDS011;5098;48.792;9.012;2024-03-08T09:25:20;20.20;;;16.63;;
10116;SDS011;5098;48.792;9.012;2024-03-08T09:27:47;23.73;;;16.80;;
10116;SDS011;5098;48.792;9.012;2024-03-08T09:30:13;23.02;;;17.25;;
10116;SDS011;5098;48.792;9.012;2024-03-08T09:32:40;22.48;;;17.98;;
10116;SDS011;5098;48.792;9.012;2024-03-08T09:35:06;21.38;;;17.88;;
10116;SDS011;5098;48.792;9.012;2024-03-08T09:37:35;26.40;;;17.90;;
10116;SDS011;5098;48.792;9.012;2024-03-08T09:40:02;21.83;;;17.05;;
10116;SDS011;5098;48.792;9.012;2024-03-08T09:42:34;20.48;;;17.17;;
10116;SDS011;5098;48.792;9.012;2024-03-08T09:45:03;19.30;;;16.40;;
10116;SDS011;5098;48.792;9.012;2024-03-08T09:47:30;22.30;;;16.35;;
10116;SDS011;5098;48.792;9.012;2024-03-08T09:49:58;22.88;;;17.55;;
10116;SDS011;5098;48.792;9.012;2024-03-08T09:52:26;22.33;;;19.08;;
10116;SDS011;5098;48.792;9.012;2024-03-08T09:54:52;21.75;;;16.92;;
10116;SDS011;5098;48.792;9.012;2024-03-08T09:57:19;22.08;;;16.80;;
10116;SDS011;5098;48.792;9.012;2024-03-08T09:59:45;18.25;;;14.88;;
10116;SDS011;5098;48.792;9.012;2024-03-08T10:02:14;23.52;;;17.92;;
10116;SDS011;5098;48.792;9.012;2024-03-08T10:04:40;17.88;;;14.68;;
10116;SDS011;5098;48.792;9.012;2024-03-08T10:07:07;21.40;;;16.40;;
10116;SDS011;5098;48.792;9.012;2024-03-08T10:09:33;21.25;;;18.67;;
10116;SDS011;5098;48.792;9.012;2024-03-08T10:11:59;20.23;;;17.25;;
10116;SDS011;5098;48.792;9.012;2024-03-08T10:14:25;22.30;;;18.55;;
10116;SDS011;5098;48.792;9.012;2024-03-08T10:16:54;22.25;;;15.90;;
10116;SDS011;5098;48.792;9.012;2024-03-08T10:19:24;21.05;;;17.02;;
10116;SDS011;5098;48.792;9.012;2024-03-08T10:21:51;22.42;;;17.20;;
10116;SDS011;5098;48.792;9.012;2024-03-08T10:24:24;20.50;;;17.67;;
10116;SDS011;5098;48.792;9.012;2024-03-08T10:26:53;22.10;;;17.80;;
10116;SDS011;5098;48.792;9.012;2024-03-08T10:29:19;20.45;;;16.58;;
10116;SDS011;5098;48.792;9.012;2024-03-08T10:31:45;19.52;;;15.10;;
10116;SDS011;5098;48.792;9.012;2024-03-08T10:34:12;19.20;;;16.33;;
10116;SDS011;5098;48.792;9.012;2024-03-08T10:36:38;18.88;;;15.23;;
10116;SDS011;5098;48.792;9.012;2024-03-08T10:39:19;18.50;;;16.10;;
10116;SDS011;5098;48.792;9.012;2024-03-08T10:41:48;21.98;;;16.25;;
10116;SDS011;5098;48.792;9.012;2024-03-08T10:45:01;20.75;;;16.25;;
10116;SDS011;5098;48.792;9.012;2024-03-08T10:47:18;18.85;;;14.68;;
10116;SDS011;5098;48.792;9.012;2024-03-08T10:52:13;16.85;;;13.48;;
10116;SDS011;5098;48.792;9.012;2024-03-08T10:54:42;19.45;;;15.13;;
10116;SDS011;5098;48.792;9.012;2024-03-08T10:57:09;21.48;;;16.33;;
10116;SDS011;5098;48.792;9.012;2024-03-08T10:59:37;18.50;;;15.70;;
10116;SDS011;5098;48.792;9.012;2024-03-08T11:02:04;17.90;;;14.48;;
10116;SDS011;5098;48.792;9.012;2024-03-08T11:04:31;18.35;;;15.70;;
10116;SDS011;5098;48.792;9.012;2024-03-08T11:07:01;17.88;;;15.50;;
10116;SDS011;5098;48.792;9.012;2024-03-08T11:09:32;18.30;;;15.27;;
10116;SDS011;5098;48.792;9.012;2024-03-08T11:14:44;18.85;;;16.35;;
10116;SDS011;5098;48.792;9.012;2024-03-08T11:17:13;18.30;;;15.50;;
10116;SDS011;5098;48.792;9.012;2024-03-08T11:19:44;19.90;;;14.75;;
10116;SDS011;5098;48.792;9.012;2024-03-08T11:22:13;19.93;;;15.53;;
10116;SDS011;5098;48.792;9.012;2024-03-08T11:24:48;20.70;;;16.50;;
10116;SDS011;5098;48.792;9.012;2024-03-08T11:27:15;19.08;;;17.08;;
10116;SDS011;5098;48.792;9.012;2024-03-08T11:29:41;17.67;;;15.77;;
10116;SDS011;5098;48.792;9.012;2024-03-08T11:32:16;18.20;;;15.30;;
10116;SDS011;5098;48.792;9.012;2024-03-08T11:34:45;19.67;;;15.23;;
10116;SDS011;5098;48.792;9.012;2024-03-08T11:37:21;19.17;;;14.70;;
10116;SDS011;5098;48.792;9.012;2024-03-08T11:39:49;16.30;;;14.53;;
10116;SDS011;5098;48.792;9.012;2024-03-08T11:42:16;18.00;;;14.37;;
10116;SDS011;5098;48.792;9.012;2024-03-08T11:44:42;17.20;;;13.90;;
10116;SDS011;5098;48.792;9.012;2024-03-08T11:47:09;14.97;;;13.17;;
10116;SDS011;5098;48.792;9.012;2024-03-08T11:49:36;15.93;;;13.67;;
10116;SDS011;5098;48.792;9.012;2024-03-08T11:52:02;17.83;;;15.23;;
10116;SDS011;5098;48.792;9.012;2024-03-08T11:54:28;17.70;;;14.50;;
10116;SDS011;5098;48.792;9.012;2024-03-08T11:56:55;21.00;;;16.07;;
10116;SDS011;5098;48.792;9.012;2024-03-08T11:59:25;16.53;;;13.93;;
10116;SDS011;5098;48.792;9.012;2024-03-08T12:02:01;18.60;;;16.30;;
10116;SDS011;5098;48.792;9.012;2024-03-08T12:04:28;17.27;;;15.17;;
10116;SDS011;5098;48.792;9.012;2024-03-08T12:06:54;16.43;;;14.63;;
10116;SDS011;5098;48.792;9.012;2024-03-08T12:09:20;17.80;;;13.50;;
10116;SDS011;5098;48.792;9.012;2024-03-08T12:11:50;15.27;;;12.80;;
10116;SDS011;5098;48.792;9.012;2024-03-08T12:14:17;16.90;;;13.70;;
10116;SDS011;5098;48.792;9.012;2024-03-08T12:16:43;16.77;;;14.10;;
10116;SDS011;5098;48.792;9.012;2024-03-08T12:19:09;17.67;;;15.13;;
10116;SDS011;5098;48.792;9.012;2024-03-08T12:21:36;16.97;;;13.90;;
10116;SDS011;5098;48.792;9.012;2024-03-08T12:24:03;15.30;;;13.70;;
10116;SDS011;5098;48.792;9.012;2024-03-08T12:26:29;16.37;;;13.83;;
10116;SDS011;5098;48.792;9.012;2024-03-08T12:29:14;17.70;;;13.33;;
10116;SDS011;5098;48.792;9.012;2024-03-08T12:31:41;16.50;;;14.80;;
10116;SDS011;5098;48.792;9.012;2024-03-08T12:34:07;16.50;;;14.90;;
10116;SDS011;5098;48.792;9.012;2024-03-08T12:36:35;16.00;;;14.30;;
10116;SDS011;5098;48.792;9.012;2024-03-08T12:39:01;17.83;;;14.67;;
10116;SDS011;5098;48.792;9.012;2024-03-08T12:41:30;18.03;;;15.40;;
10116;SDS011;5098;48.792;9.012;2024-03-08T12:43:57;18.83;;;15.87;;
10116;SDS011;5098;48.792;9.012;2024-03-08T12:46:23;18.40;;;15.10;;
10116;SDS011;5098;48.792;9.012;2024-03-08T12:48:55;19.30;;;16.57;;
10116;SDS011;5098;48.792;9.012;2024-03-08T12:51:21;17.37;;;12.73;;
10116;SDS011;5098;48.792;9.012;2024-03-08T12:53:47;16.83;;;13.87;;
10116;SDS011;5098;48.792;9.012;2024-03-08T12:56:19;17.50;;;13.93;;
10116;SDS011;5098;48.792;9.012;2024-03-08T12:58:54;17.37;;;14.57;;
10116;SDS011;5098;48.792;9.012;2024-03-08T13:01:20;15.10;;;13.30;;
10116;SDS011;5098;48.792;9.012;2024-03-08T13:03:46;17.27;;;13.93;;
10116;SDS011;5098;48.792;9.012;2024-03-08T13:06:14;17.60;;;14.73;;
10116;SDS011;5098;48.792;9.012;2024-03-08T13:08:41;19.20;;;16.30;;
10116;SDS011;5098;48.792;9.012;2024-03-08T13:11:08;18.00;;;16.07;;
10116;SDS011;5098;48.792;9.012;2024-03-08T13:13:39;19.47;;;15.30;;
10116;SDS011;5098;48.792;9.012;2024-03-08T13:16:05;15.63;;;13.10;;
10116;SDS011;5098;48.792;9.012;2024-03-08T13:18:38;17.83;;;14.43;;
10116;SDS011;5098;48.792;9.012;2024-03-08T13:21:04;16.00;;;13.40;;
10116;SDS011;5098;48.792;9.012;2024-03-08T13:23:31;17.90;;;16.00;;
10116;SDS011;5098;48.792;9.012;2024-03-08T13:25:58;17.07;;;14.20;;
10116;SDS011;5098;48.792;9.012;2024-03-08T13:28:25;16.80;;;14.60;;
10116;SDS011;5098;48.792;9.012;2024-03-08T13:30:55;18.27;;;16.37;;
10116;SDS011;5098;48.792;9.012;2024-03-08T13:33:26;17.97;;;15.60;;
10116;SDS011;5098;48.792;9.012;2024-03-08T13:35:52;17.23;;;14.30;;
10116;SDS011;5098;48.792;9.012;2024-03-08T13:38:19;19.63;;;16.90;;
10116;SDS011;5098;48.792;9.012;2024-03-08T13:40:45;19.90;;;15.50;;
10116;SDS011;5098;48.792;9.012;2024-03-08T13:43:14;18.03;;;16.10;;
10116;SDS011;5098;48.792;9.012;2024-03-08T13:45:40;20.93;;;16.13;;
10116;SDS011;5098;48.792;9.012;2024-03-08T13:48:06;19.70;;;14.40;;
10116;SDS011;5098;48.792;9.012;2024-03-08T13:50:32;17.27;;;14.60;;
10116;SDS011;5098;48.792;9.012;2024-03-08T13:53:00;15.97;;;12.37;;
10116;SDS011;5098;48.792;9.012;2024-03-08T13:55:26;17.90;;;14.90;;
10116;SDS011;5098;48.792;9.012;2024-03-08T13:57:52;17.93;;;14.20;;
10116;SDS011;5098;48.792;9.012;2024-03-08T14:00:18;17.57;;;15.23;;
10116;SDS011;5098;48.792;9.012;2024-03-08T14:02:49;17.00;;;14.50;;
10116;SDS011;5098;48.792;9.012;2024-03-08T14:05:15;19.47;;;15.13;;
10116;SDS011;5098;48.792;9.012;2024-03-08T14:07:44;19.20;;;16.73;;
10116;SDS011;5098;48.792;9.012;2024-03-08T14:10:12;22.53;;;16.87;;
10116;SDS011;5098;48.792;9.012;2024-03-08T14:12:38;17.63;;;15.17;;
10116;SDS011;5098;48.792;9.012;2024-03-08T14:15:04;19.80;;;17.33;;
10116;SDS011;5098;48.792;9.012;2024-03-08T14:17:31;20.23;;;16.80;;
10116;SDS011;5098;48.792;9.012;2024-03-08T14:19:57;17.67;;;14.30;;
10116;SDS011;5098;48.792;9.012;2024-03-08T14:22:24;18.70;;;14.73;;
10116;SDS011;5098;48.792;9.012;2024-03-08T14:24:50;20.60;;;16.13;;
10116;SDS011;5098;48.792;9.012;2024-03-08T14:27:17;23.20;;;15.33;;
10116;SDS011;5098;48.792;9.012;2024-03-08T14:29:43;15.63;;;13.27;;
10116;SDS011;5098;48.792;9.012;2024-03-08T14:32:10;18.67;;;16.27;;
10116;SDS011;5098;48.792;9.012;2024-03-08T14:34:38;22.70;;;16.47;;
10116;SDS011;5098;48.792;9.012;2024-03-08T14:37:04;17.13;;;13.70;;
10116;SDS011;5098;48.792;9.012;2024-03-08T14:39:36;17.57;;;15.53;;